createdAt,value
2018-12-19T03:38:05.003Z,44.90
2018-12-19T03:40:34.069Z,46.80
2018-12-19T03:43:07.791Z,44.37
2018-12-19T03:45:36.787Z,47.00
2018-12-19T03:48:19.642Z,44.20
2018-12-19T03:50:53.914Z,43.70
2018-12-19T03:53:22.978Z,46.20
2018-12-19T03:55:58.149Z,46.13
2018-12-19T03:58:27.136Z,44.67
2018-12-19T04:00:59.439Z,42.43
2018-12-19T04:03:30.291Z,44.90
2018-12-19T04:06:01.206Z,39.73
2018-12-19T04:08:34.147Z,42.40
2018-12-19T04:11:06.775Z,39.20
2018-12-19T04:13:39.864Z,40.70
2018-12-19T04:16:08.986Z,41.17
2018-12-19T04:18:38.180Z,41.17
2018-12-19T04:21:07.219Z,37.80
2018-12-19T04:23:36.247Z,37.27
2018-12-19T04:26:05.265Z,41.30
2018-12-19T04:28:34.416Z,40.77
2018-12-19T04:31:03.424Z,38.03
2018-12-19T04:33:32.508Z,39.77
2018-12-19T04:36:07.451Z,42.50
2018-12-19T04:38:36.574Z,39.77
2018-12-19T04:41:09.198Z,35.80
2018-12-19T04:43:48.339Z,36.43
2018-12-19T04:46:17.353Z,36.77
2018-12-19T04:48:46.397Z,39.97
2018-12-19T04:51:15.373Z,38.73
2018-12-19T04:53:47.133Z,40.13
2018-12-19T04:56:16.105Z,37.87
2018-12-19T04:58:52.236Z,42.70
2018-12-19T05:01:21.274Z,41.63
2018-12-19T05:03:50.307Z,40.30
2018-12-19T05:06:19.342Z,39.53
2018-12-19T05:08:48.322Z,39.07
2018-12-19T05:11:17.352Z,37.40
2018-12-19T05:13:48.541Z,40.30
2018-12-19T05:16:21.035Z,38.80
2018-12-19T05:18:50.147Z,39.93
2018-12-19T05:21:19.078Z,35.73
2018-12-19T05:23:48.070Z,37.13
2018-12-19T05:26:24.141Z,39.03
2018-12-19T05:28:53.129Z,37.63
2018-12-19T05:31:22.158Z,39.33
2018-12-19T05:33:51.185Z,38.20
2018-12-19T05:36:27.627Z,36.83
2018-12-19T05:38:56.621Z,36.60
2018-12-19T05:41:25.669Z,36.07
2018-12-19T05:44:00.864Z,38.73
2018-12-19T05:46:37.913Z,35.27
2018-12-19T05:49:12.762Z,36.77
2018-12-19T05:51:44.573Z,33.77
2018-12-19T05:54:17.247Z,33.83
2018-12-19T05:56:47.632Z,33.30
2018-12-19T05:59:21.396Z,32.83
2018-12-19T06:01:51.426Z,35.23
2018-12-19T06:04:21.119Z,35.30
2018-12-19T06:06:55.000Z,32.20
2018-12-19T06:09:24.008Z,33.90
2018-12-19T06:11:53.454Z,30.07
2018-12-19T06:14:26.220Z,31.93
2018-12-19T06:16:59.132Z,30.23
2018-12-19T06:19:31.890Z,33.10
2018-12-19T06:22:00.856Z,30.77
2018-12-19T06:24:35.922Z,31.60
2018-12-19T06:27:09.487Z,32.83
2018-12-19T06:29:38.450Z,32.53
2018-12-19T06:32:12.537Z,29.00
2018-12-19T06:34:41.545Z,30.27
2018-12-19T06:37:10.564Z,30.20
2018-12-19T06:39:39.529Z,33.73
2018-12-19T06:42:08.683Z,31.50
2018-12-19T06:44:47.196Z,31.10
2018-12-19T06:47:25.224Z,31.37
2018-12-19T06:49:54.275Z,29.57
2018-12-19T06:52:28.054Z,30.37
2018-12-19T06:54:57.151Z,35.10
2018-12-19T06:57:30.238Z,30.57
2018-12-19T07:00:01.539Z,28.67
2018-12-19T07:02:34.235Z,32.40
2018-12-19T07:05:03.245Z,30.97
2018-12-19T07:07:32.296Z,32.53
2018-12-19T07:10:02.604Z,31.40
2018-12-19T07:12:39.122Z,31.83
2018-12-19T07:15:12.306Z,31.53
2018-12-19T07:17:41.800Z,30.67
2018-12-19T07:20:10.797Z,30.47
2018-12-19T07:22:43.365Z,30.23
2018-12-19T07:25:12.454Z,32.57
2018-12-19T07:27:41.681Z,27.47
2018-12-19T07:30:10.700Z,32.83
2018-12-19T07:32:39.820Z,31.20
2018-12-19T07:35:08.918Z,32.53
2018-12-19T07:37:37.895Z,30.40
2018-12-19T07:40:06.993Z,31.20
2018-12-19T07:42:40.343Z,27.40
2018-12-19T07:45:10.365Z,28.53
2018-12-19T07:47:43.302Z,31.13
2018-12-19T07:50:17.723Z,31.10
2018-12-19T07:52:51.405Z,31.43
2018-12-19T07:55:20.751Z,29.03
2018-12-19T07:57:52.468Z,27.70
2018-12-19T08:00:27.246Z,27.47
2018-12-19T08:02:55.067Z,27.53
2018-12-19T08:05:27.984Z,29.57
2018-12-19T08:08:00.379Z,33.77
2018-12-19T08:10:30.623Z,28.47
2018-12-19T08:12:59.821Z,29.73
2018-12-19T08:15:28.883Z,28.90
2018-12-19T08:17:58.015Z,30.13
2018-12-19T08:20:27.068Z,28.00
2018-12-19T08:22:56.205Z,26.70
2018-12-19T08:25:28.408Z,29.13
2018-12-19T08:28:02.140Z,26.10
2018-12-19T08:30:40.486Z,26.53
2018-12-19T08:33:09.519Z,26.70
2018-12-19T08:35:40.090Z,27.33
2018-12-19T08:40:58.737Z,29.00
2018-12-19T08:43:33.597Z,24.63
2018-12-19T08:46:04.158Z,27.33
2018-12-19T08:48:34.440Z,27.93
2018-12-19T08:51:03.483Z,25.40
2018-12-19T08:53:36.913Z,26.03
2018-12-19T08:56:15.164Z,25.63
2018-12-19T08:58:48.477Z,25.57
2018-12-19T09:01:30.123Z,26.47
2018-12-19T09:04:05.479Z,25.23
2018-12-19T09:06:36.163Z,24.10
2018-12-19T09:09:10.518Z,24.93
2018-12-19T09:11:39.629Z,24.47
2018-12-19T09:14:15.531Z,22.63
2018-12-19T09:16:49.938Z,25.23
2018-12-19T09:19:18.910Z,25.30
2018-12-19T09:21:59.382Z,25.13
2018-12-19T09:24:28.481Z,25.10
2018-12-19T09:27:10.861Z,24.57
2018-12-19T09:29:40.073Z,24.77
2018-12-19T09:32:09.212Z,26.10
2018-12-19T09:34:38.416Z,26.40
2018-12-19T09:37:07.479Z,26.07
2018-12-19T09:39:36.527Z,24.27
2018-12-19T09:42:05.580Z,27.63
2018-12-19T09:44:34.747Z,25.63
2018-12-19T09:47:04.049Z,24.30
2018-12-19T09:49:33.097Z,25.50
2018-12-19T09:52:02.198Z,24.63
2018-12-19T09:54:31.288Z,26.30
2018-12-19T09:57:00.314Z,26.07
2018-12-19T09:59:29.394Z,25.47
2018-12-19T10:01:58.636Z,26.67
2018-12-19T10:04:33.171Z,24.67
2018-12-19T10:07:05.319Z,24.83
2018-12-19T10:09:36.742Z,22.97
2018-12-19T10:12:05.755Z,23.23
2018-12-19T10:14:37.384Z,27.67
2018-12-19T10:17:06.586Z,22.73
2018-12-19T10:19:41.860Z,23.73
2018-12-19T10:22:10.893Z,25.67
2018-12-19T10:24:46.453Z,25.30
2018-12-19T10:27:21.687Z,23.90
2018-12-19T10:29:50.797Z,28.80
2018-12-19T10:32:21.783Z,27.43
2018-12-19T10:34:52.329Z,24.93
2018-12-19T10:37:21.560Z,24.83
2018-12-19T10:39:54.429Z,24.83
2018-12-19T10:42:25.773Z,28.67
2018-12-19T10:45:01.311Z,26.70
2018-12-19T10:47:33.129Z,24.07
2018-12-19T10:50:05.532Z,27.53
2018-12-19T10:52:34.717Z,24.53
2018-12-19T10:55:07.936Z,22.40
2018-12-19T10:57:40.346Z,25.30
2018-12-19T11:00:18.907Z,24.53
2018-12-19T11:02:47.879Z,25.17
2018-12-19T11:05:20.646Z,21.67
2018-12-19T11:07:51.196Z,24.60
2018-12-19T11:10:23.522Z,23.13
2018-12-19T11:12:52.634Z,24.87
2018-12-19T11:15:21.610Z,22.37
2018-12-19T11:17:50.658Z,21.77
2018-12-19T11:20:19.864Z,25.73
2018-12-19T11:22:53.634Z,21.30
2018-12-19T11:25:27.834Z,27.13
2018-12-19T11:27:57.021Z,23.83
2018-12-19T11:30:29.515Z,21.63
2018-12-19T11:32:58.787Z,22.93
2018-12-19T11:35:33.907Z,23.00
2018-12-19T11:38:02.903Z,22.83
2018-12-19T11:40:31.903Z,22.97
2018-12-19T11:43:00.877Z,25.53
2018-12-19T11:45:30.015Z,25.77
2018-12-19T11:47:59.109Z,25.57
2018-12-19T11:50:34.458Z,24.07
2018-12-19T11:53:06.916Z,21.87
2018-12-19T11:55:37.090Z,23.13
2018-12-19T11:58:06.136Z,23.53
2018-12-19T12:00:35.176Z,21.80
2018-12-19T12:03:04.346Z,22.50
2018-12-19T12:05:33.583Z,22.53
2018-12-19T12:08:02.872Z,36.37
2018-12-19T12:10:31.900Z,21.93
2018-12-19T12:13:00.976Z,23.23
2018-12-19T12:15:32.928Z,23.57
2018-12-19T12:18:02.115Z,23.83
2018-12-19T12:20:34.858Z,21.47
2018-12-19T12:23:03.857Z,22.23
2018-12-19T12:25:33.110Z,22.17
2018-12-19T12:28:02.721Z,21.73
2018-12-19T12:30:31.869Z,23.87
2018-12-19T12:33:03.116Z,20.83
2018-12-19T12:35:32.294Z,21.20
2018-12-19T12:38:02.489Z,24.10
2018-12-19T12:40:34.793Z,24.20
2018-12-19T12:43:03.788Z,22.97
2018-12-19T12:45:37.876Z,25.60
2018-12-19T12:48:08.573Z,21.50
2018-12-19T12:50:44.830Z,20.87
2018-12-19T12:53:14.083Z,21.83
2018-12-19T12:55:44.405Z,21.50
2018-12-19T12:58:13.688Z,22.87
2018-12-19T13:00:42.738Z,20.80
2018-12-19T13:03:13.311Z,22.27
2018-12-19T13:05:46.160Z,21.40
2018-12-19T13:08:15.181Z,22.90
2018-12-19T13:10:44.315Z,23.30
2018-12-19T13:13:13.261Z,24.37
2018-12-19T13:15:46.519Z,22.50
2018-12-19T13:18:23.263Z,20.27
2018-12-19T13:20:56.261Z,21.57
2018-12-19T13:23:26.814Z,24.43
2018-12-19T13:25:54.410Z,24.73
2018-12-19T13:28:23.447Z,20.10
2018-12-19T13:30:52.494Z,22.13
2018-12-19T13:33:21.527Z,21.20
2018-12-19T13:35:50.846Z,23.13
2018-12-19T13:38:24.164Z,23.67
2018-12-19T13:40:53.269Z,22.80
2018-12-19T13:43:22.391Z,22.70
2018-12-19T13:45:54.129Z,22.30
2018-12-19T13:48:23.077Z,22.63
2018-12-19T13:50:52.096Z,21.77
2018-12-19T13:53:27.522Z,19.43
2018-12-19T13:55:59.113Z,24.03
2018-12-19T13:58:28.326Z,22.40
2018-12-19T14:00:57.491Z,23.47
2018-12-19T14:03:26.450Z,20.87
2018-12-19T14:05:59.489Z,22.70
2018-12-19T14:08:30.366Z,26.87
2018-12-19T14:11:03.394Z,22.27
2018-12-19T14:13:34.289Z,24.20
2018-12-19T14:16:03.536Z,23.47
2018-12-19T14:18:32.475Z,23.17
2018-12-19T14:23:58.473Z,22.10
2018-12-19T14:26:30.021Z,27.67
2018-12-19T14:28:58.992Z,23.30
2018-12-19T14:31:27.963Z,25.40
2018-12-19T14:33:57.161Z,24.17
2018-12-19T14:36:26.422Z,24.73
2018-12-19T14:38:55.419Z,23.30
2018-12-19T14:41:24.361Z,26.27
2018-12-19T14:43:53.517Z,22.40
2018-12-19T14:46:22.548Z,22.00
2018-12-19T14:48:51.817Z,26.23
2018-12-19T14:51:20.957Z,23.47
2018-12-19T14:53:49.971Z,24.83
2018-12-19T14:56:18.967Z,23.77
2018-12-19T14:58:48.620Z,24.00
2018-12-19T15:01:18.730Z,25.93
2018-12-19T15:03:48.420Z,24.80
2018-12-19T15:06:17.489Z,22.90
2018-12-19T15:08:56.179Z,23.43
2018-12-19T15:11:27.072Z,22.10
2018-12-19T15:13:59.226Z,22.87
2018-12-19T15:16:28.242Z,25.00
2018-12-19T15:19:08.253Z,21.00
2018-12-19T15:21:45.214Z,22.70
2018-12-19T15:24:17.224Z,24.30
2018-12-19T15:26:46.370Z,26.57
2018-12-19T15:29:19.394Z,23.60
2018-12-19T15:31:48.451Z,23.73
2018-12-19T15:34:21.164Z,24.30
2018-12-19T15:36:58.328Z,25.07
2018-12-19T15:39:34.984Z,24.87
2018-12-19T15:42:10.716Z,25.60
2018-12-19T15:44:39.795Z,23.60
2018-12-19T15:47:10.432Z,22.23
2018-12-19T15:49:40.287Z,22.57
2018-12-19T15:52:09.278Z,22.40
2018-12-19T15:54:38.223Z,24.50
2018-12-19T15:57:08.693Z,22.50
2018-12-19T15:59:37.731Z,24.93
2018-12-19T16:02:08.695Z,22.87
2018-12-19T16:04:37.734Z,23.43
2018-12-19T16:07:10.064Z,23.70
2018-12-19T16:09:39.029Z,22.63
2018-12-19T16:12:08.130Z,21.93
2018-12-19T16:14:38.065Z,21.97
2018-12-19T16:17:11.370Z,22.53
2018-12-19T16:19:40.530Z,21.83
2018-12-19T16:22:14.575Z,22.07
2018-12-19T16:24:43.601Z,24.07
2018-12-19T16:27:13.697Z,23.70
2018-12-19T16:29:42.717Z,24.50
2018-12-19T16:32:11.729Z,22.73
2018-12-19T16:34:41.874Z,21.83
2018-12-19T16:37:10.944Z,23.13
2018-12-19T16:39:47.131Z,23.13
2018-12-19T16:42:16.197Z,22.13
2018-12-19T16:44:47.984Z,21.10
2018-12-19T16:47:18.052Z,26.00
2018-12-19T16:49:47.988Z,21.30
2018-12-19T16:52:21.760Z,21.83
2018-12-19T16:54:52.278Z,23.50
2018-12-19T16:57:21.241Z,24.63
2018-12-19T16:59:55.112Z,23.57
2018-12-19T17:02:24.473Z,25.33
2018-12-19T17:04:59.980Z,20.70
2018-12-19T17:07:29.337Z,24.07
2018-12-19T17:09:58.581Z,24.40
2018-12-19T17:12:28.763Z,22.17
2018-12-19T17:14:57.793Z,22.57
2018-12-19T17:17:27.115Z,23.93
2018-12-19T17:19:58.465Z,25.97
2018-12-19T17:22:28.709Z,23.20
2018-12-19T17:24:59.817Z,23.27
2018-12-19T17:27:33.136Z,22.73
2018-12-19T17:30:02.495Z,21.90
2018-12-19T17:41:12.794Z,25.13
2018-12-19T17:43:42.567Z,27.50
2018-12-19T17:46:13.222Z,24.27
2018-12-19T17:48:52.295Z,25.27
2018-12-19T17:51:23.027Z,24.87
2018-12-19T17:53:52.144Z,24.13
2018-12-19T17:56:39.114Z,24.90
2018-12-19T17:59:08.308Z,26.23
2018-12-19T18:01:37.846Z,27.60
2018-12-19T18:04:07.500Z,23.60
2018-12-19T18:06:37.849Z,26.43
2018-12-19T18:09:07.583Z,29.47
2018-12-19T18:11:36.742Z,26.67
2018-12-19T18:14:14.017Z,25.27
2018-12-19T18:16:43.676Z,26.77
2018-12-19T18:19:15.026Z,27.47
2018-12-19T18:21:46.729Z,24.40
2018-12-19T18:24:15.870Z,25.07
2018-12-19T18:26:45.056Z,25.37
2018-12-19T18:29:14.630Z,24.63
2018-12-19T18:31:43.890Z,26.77
2018-12-19T18:34:13.324Z,26.80
2018-12-19T18:36:49.784Z,27.57
2018-12-19T18:39:27.295Z,25.80
2018-12-19T18:41:56.512Z,30.80
2018-12-19T18:44:27.003Z,27.23
2018-12-19T18:46:56.473Z,27.47
2018-12-19T18:49:25.739Z,32.23
2018-12-19T18:51:55.123Z,27.30
2018-12-19T18:54:27.196Z,26.60
2018-12-19T18:56:57.230Z,26.50
2018-12-19T18:59:26.612Z,29.50
2018-12-19T19:01:57.062Z,31.00
2018-12-19T19:04:28.401Z,31.13
2018-12-19T19:06:58.116Z,33.87
2018-12-19T19:09:28.229Z,28.70
2018-12-19T19:11:59.162Z,30.47
2018-12-19T19:14:29.466Z,29.13
2018-12-19T19:16:58.662Z,31.67
2018-12-19T19:19:30.254Z,29.73
2018-12-19T19:22:01.575Z,28.57
2018-12-19T19:24:30.977Z,29.50
2018-12-19T19:27:01.163Z,31.07
2018-12-19T19:29:30.423Z,27.20
2018-12-19T19:31:59.742Z,27.83
2018-12-19T19:34:39.219Z,27.43
2018-12-19T19:37:08.365Z,33.13
2018-12-19T19:39:37.483Z,28.77
2018-12-19T19:42:11.110Z,31.10
2018-12-19T19:44:40.772Z,29.47
2018-12-19T19:47:09.822Z,31.03
2018-12-19T19:49:41.614Z,31.67
2018-12-19T19:52:10.724Z,31.03
2018-12-19T19:54:41.943Z,30.60
2018-12-19T19:57:16.940Z,31.23
2018-12-19T19:59:47.217Z,30.63
2018-12-19T20:02:16.740Z,32.67
2018-12-19T20:04:51.767Z,29.47
2018-12-19T20:07:29.345Z,30.10
2018-12-19T20:09:58.895Z,29.60
2018-12-19T20:12:30.446Z,28.40
2018-12-19T20:15:50.465Z,28.90
2018-12-19T20:18:21.070Z,28.43
2018-12-19T20:20:50.413Z,28.97
2018-12-19T20:23:21.813Z,30.40
2018-12-19T20:25:52.471Z,28.03
2018-12-19T20:28:22.294Z,30.47
2018-12-19T20:30:53.208Z,31.17
2018-12-19T20:33:26.141Z,31.07
2018-12-19T20:35:54.641Z,30.93
2018-12-19T20:38:38.054Z,29.97
2018-12-19T20:41:25.571Z,30.33
2018-12-19T20:48:01.107Z,31.40
2018-12-19T20:51:44.322Z,29.67
2018-12-19T20:58:21.748Z,31.10
2018-12-19T23:49:29.075Z,68.93
2018-12-19T23:52:02.561Z,35.23
2018-12-19T23:54:33.922Z,33.80
2018-12-19T23:57:03.255Z,31.87
2018-12-19T23:59:33.362Z,38.87
